createdAt,value
2023-03-03T00:02:07.193Z,3.17
2023-03-03T00:04:37.036Z,3.15
2023-03-03T00:07:06.998Z,3.07
2023-03-03T00:09:36.847Z,3.07
2023-03-03T00:12:16.629Z,3.02
2023-03-03T00:14:46.269Z,3.14
2023-03-03T00:17:19.114Z,3.01
2023-03-03T00:19:52.348Z,3.25
2023-03-03T00:22:33.973Z,2.89
2023-03-03T00:25:09.481Z,2.67
2023-03-03T00:27:39.254Z,2.67
2023-03-03T00:30:20.152Z,2.79
2023-03-03T00:32:51.712Z,2.67
2023-03-03T00:35:38.444Z,2.61
2023-03-03T00:38:15.292Z,2.37
2023-03-03T00:40:46.093Z,2.44
2023-03-03T00:43:28.921Z,2.39
2023-03-03T00:45:59.421Z,2.39
2023-03-03T00:48:34.888Z,2.39
2023-03-03T00:51:13.047Z,2.44
2023-03-03T00:53:42.906Z,2.44
2023-03-03T00:56:12.657Z,2.45
2023-03-03T00:58:44.159Z,2.30
2023-03-03T01:01:15.263Z,2.43
2023-03-03T01:03:46.800Z,2.01
2023-03-03T01:06:17.788Z,2.01
2023-03-03T01:08:47.550Z,2.05
2023-03-03T01:11:20.363Z,2.21
2023-03-03T01:13:53.036Z,2.19
2023-03-03T01:16:22.934Z,2.23
2023-03-03T01:18:53.043Z,1.99
2023-03-03T01:21:23.474Z,2.32
2023-03-03T01:23:53.372Z,2.14
2023-03-03T01:26:23.141Z,2.18
2023-03-03T01:28:53.461Z,2.18
2023-03-03T01:31:23.445Z,2.35
2023-03-03T01:33:53.541Z,2.03
2023-03-03T01:36:30.283Z,2.10
2023-03-03T01:39:00.487Z,1.95
2023-03-03T01:41:33.462Z,2.03
2023-03-03T01:44:03.710Z,1.92
2023-03-03T01:46:54.580Z,2.01
2023-03-03T01:49:36.373Z,1.91
2023-03-03T01:52:27.900Z,2.09
2023-03-03T01:55:00.809Z,2.17
2023-03-03T01:57:36.228Z,2.32
2023-03-03T02:00:09.414Z,2.18
2023-03-03T02:02:46.148Z,2.23
2023-03-03T02:05:17.313Z,2.23
2023-03-03T02:07:47.700Z,2.00
2023-03-03T02:10:19.944Z,2.30
2023-03-03T02:12:57.089Z,2.38
2023-03-03T02:15:32.288Z,2.38
2023-03-03T02:18:04.896Z,2.28
2023-03-03T02:20:53.959Z,2.52
2023-03-03T02:23:33.029Z,2.46
2023-03-03T02:26:13.884Z,2.44
2023-03-03T02:28:44.023Z,2.50
2023-03-03T02:31:17.748Z,2.12
2023-03-03T02:33:50.178Z,2.39
2023-03-03T02:36:22.697Z,2.31
2023-03-03T02:39:13.379Z,2.31
2023-03-03T02:42:06.894Z,2.07
2023-03-03T02:44:44.089Z,2.31
2023-03-03T02:47:13.820Z,2.29
2023-03-03T02:49:43.696Z,2.47
2023-03-03T02:52:15.025Z,2.19
2023-03-03T02:54:46.838Z,2.16
2023-03-03T02:57:17.095Z,2.73
2023-03-03T02:59:46.953Z,2.55
2023-03-03T03:02:19.374Z,2.45
2023-03-03T03:04:49.530Z,2.45
2023-03-03T03:07:21.030Z,2.14
2023-03-03T03:09:51.201Z,2.38
2023-03-03T03:12:21.758Z,1.98
2023-03-03T03:14:53.325Z,2.26
2023-03-03T03:17:23.247Z,2.11
2023-03-03T03:19:53.520Z,2.40
2023-03-03T03:22:23.543Z,2.35
2023-03-03T03:24:53.198Z,2.09
2023-03-03T03:27:23.423Z,2.36
2023-03-03T03:29:53.681Z,2.36
2023-03-03T03:32:24.548Z,2.33
2023-03-03T03:34:54.596Z,2.33
2023-03-03T03:37:24.671Z,2.48
2023-03-03T03:39:54.308Z,2.46
2023-03-03T03:42:26.427Z,2.10
2023-03-03T03:44:56.551Z,2.28
2023-03-03T03:47:26.506Z,2.30
2023-03-03T03:49:57.145Z,2.11
2023-03-03T03:52:27.005Z,2.36
2023-03-03T03:54:56.944Z,2.42
2023-03-03T03:57:26.821Z,2.42
2023-03-03T03:59:56.679Z,2.61
2023-03-03T04:02:26.868Z,2.64
2023-03-03T04:04:56.852Z,2.52
2023-03-03T04:07:26.941Z,2.54
2023-03-03T04:09:57.064Z,2.52
2023-03-03T04:12:26.940Z,2.50
2023-03-03T04:14:58.870Z,2.59
2023-03-03T04:17:28.913Z,2.55
2023-03-03T04:19:59.093Z,2.56
2023-03-03T04:22:32.150Z,2.55
2023-03-03T04:25:05.089Z,2.44
2023-03-03T04:27:37.928Z,2.40
2023-03-03T04:30:10.172Z,2.58
2023-03-03T04:32:40.429Z,2.66
2023-03-03T04:35:12.422Z,2.63
2023-03-03T04:37:43.477Z,2.63
2023-03-03T04:40:14.947Z,2.62
2023-03-03T04:42:44.995Z,2.71
2023-03-03T04:45:15.300Z,2.71
2023-03-03T04:47:46.800Z,2.90
2023-03-03T04:50:16.961Z,2.70
2023-03-03T04:52:46.784Z,2.65
2023-03-03T04:55:17.027Z,2.65
2023-03-03T04:57:48.984Z,2.58
2023-03-03T05:00:19.873Z,2.62
2023-03-03T05:02:50.247Z,2.47
2023-03-03T05:05:20.104Z,2.54
2023-03-03T05:07:50.034Z,2.54
2023-03-03T05:10:22.736Z,2.39
2023-03-03T05:12:52.480Z,2.51
2023-03-03T05:15:22.368Z,2.53
2023-03-03T05:17:54.977Z,2.34
2023-03-03T05:20:25.865Z,2.58
2023-03-03T05:22:57.338Z,2.82
2023-03-03T05:25:27.206Z,2.70
2023-03-03T05:27:57.145Z,2.63
2023-03-03T05:30:27.026Z,2.79
2023-03-03T05:32:58.470Z,2.81
2023-03-03T05:35:31.609Z,2.87
2023-03-03T05:38:03.204Z,2.49
2023-03-03T05:40:33.437Z,2.65
2023-03-03T05:43:04.748Z,2.88
2023-03-03T05:45:35.302Z,2.96
2023-03-03T05:48:05.375Z,2.80
2023-03-03T05:50:35.052Z,2.71
2023-03-03T05:53:06.736Z,2.71
2023-03-03T05:55:38.156Z,2.84
2023-03-03T05:58:09.311Z,2.93
2023-03-03T06:00:39.492Z,2.81
2023-03-03T06:03:09.381Z,2.73
2023-03-03T06:05:39.311Z,2.78
2023-03-03T06:08:11.589Z,2.62
2023-03-03T06:10:41.773Z,2.73
2023-03-03T06:13:12.090Z,2.70
2023-03-03T06:15:42.007Z,2.72
2023-03-03T06:18:13.936Z,2.76
2023-03-03T06:20:43.897Z,2.82
2023-03-03T06:23:14.061Z,2.71
2023-03-03T06:25:44.561Z,3.00
2023-03-03T06:28:15.125Z,2.82
2023-03-03T06:30:44.928Z,2.96
2023-03-03T06:33:14.702Z,2.90
2023-03-03T06:35:44.606Z,3.03
2023-03-03T06:38:14.200Z,3.25
2023-03-03T06:40:44.021Z,3.04
2023-03-03T06:43:14.185Z,3.11
2023-03-03T06:45:46.059Z,2.98
2023-03-03T06:48:16.176Z,2.77
2023-03-03T06:50:46.288Z,2.77
2023-03-03T06:53:18.146Z,2.92
2023-03-03T06:55:48.049Z,3.06
2023-03-03T06:58:20.227Z,3.06
2023-03-03T07:01:00.498Z,2.79
2023-03-03T07:03:34.993Z,2.94
2023-03-03T07:06:07.950Z,3.02
2023-03-03T07:08:38.556Z,3.12
2023-03-03T07:11:11.574Z,3.02
2023-03-03T07:13:44.456Z,3.00
2023-03-03T07:16:17.477Z,3.08
2023-03-03T07:19:06.379Z,3.20
2023-03-03T07:21:38.898Z,2.96
2023-03-03T07:24:28.580Z,2.66
2023-03-03T07:27:03.661Z,2.64
2023-03-03T07:29:35.621Z,2.95
2023-03-03T07:32:22.356Z,3.33
2023-03-03T07:34:55.422Z,3.33
2023-03-03T07:37:38.455Z,3.05
2023-03-03T07:40:27.828Z,3.31
2023-03-03T07:42:57.647Z,3.43
2023-03-03T07:45:35.112Z,3.39
2023-03-03T07:48:09.267Z,3.52
2023-03-03T07:50:40.545Z,3.49
2023-03-03T07:53:13.423Z,3.41
2023-03-03T07:55:43.377Z,3.43
2023-03-03T07:58:17.183Z,3.50
2023-03-03T08:01:07.816Z,3.81
2023-03-03T08:03:38.015Z,3.48
2023-03-03T08:06:13.374Z,3.47
2023-03-03T08:08:44.572Z,3.21
2023-03-03T08:11:14.411Z,3.42
2023-03-03T08:13:46.527Z,3.48
2023-03-03T08:16:19.391Z,3.71
2023-03-03T08:18:51.384Z,3.50
2023-03-03T08:21:23.957Z,3.43
2023-03-03T08:23:54.383Z,3.63
2023-03-03T08:26:25.526Z,3.63
2023-03-03T08:28:56.013Z,3.72
2023-03-03T08:31:40.403Z,3.46
2023-03-03T08:33:59.031Z,3.79
2023-03-03T08:36:28.493Z,3.55
2023-03-03T08:38:58.427Z,3.67
2023-03-03T08:41:28.248Z,3.80
2023-03-03T08:43:58.092Z,3.44
2023-03-03T08:46:28.811Z,3.49
2023-03-03T08:48:58.908Z,3.54
2023-03-03T08:51:29.360Z,3.56
2023-03-03T08:53:59.334Z,3.62
2023-03-03T08:56:29.216Z,3.80
2023-03-03T08:59:02.445Z,3.79
2023-03-03T09:01:32.781Z,4.12
2023-03-03T09:04:02.764Z,4.16
2023-03-03T09:06:32.566Z,3.76
2023-03-03T09:09:02.878Z,3.99
2023-03-03T09:11:32.766Z,4.05
2023-03-03T09:14:14.363Z,4.53
2023-03-03T09:16:47.249Z,4.48
2023-03-03T09:19:22.803Z,4.08
2023-03-03T09:21:57.394Z,4.26
2023-03-03T09:24:29.176Z,4.46
2023-03-03T09:27:00.279Z,4.23
2023-03-03T09:29:32.654Z,4.43
2023-03-03T09:32:05.872Z,4.80
2023-03-03T09:34:43.387Z,4.55
2023-03-03T09:37:25.051Z,4.70
2023-03-03T09:39:57.538Z,4.79
2023-03-03T09:42:43.057Z,4.96
2023-03-03T09:45:44.983Z,5.00
2023-03-03T09:48:23.425Z,5.23
2023-03-03T09:51:05.235Z,5.08
2023-03-03T09:53:46.285Z,5.12
2023-03-03T09:56:19.189Z,5.13
2023-03-03T09:59:08.011Z,5.39
2023-03-03T10:01:52.301Z,6.02
2023-03-03T10:04:50.252Z,5.88
2023-03-03T10:07:38.017Z,5.72
2023-03-03T10:10:39.479Z,5.64
2023-03-03T10:13:45.644Z,5.56
2023-03-03T10:16:38.548Z,6.02
2023-03-03T10:19:14.338Z,6.30
2023-03-03T10:21:47.517Z,5.79
2023-03-03T10:24:26.315Z,5.88
2023-03-03T10:27:14.518Z,5.99
2023-03-03T10:29:59.392Z,6.18
2023-03-03T10:32:48.852Z,6.41
2023-03-03T10:35:33.186Z,6.41
2023-03-03T10:38:15.245Z,6.53
2023-03-03T10:40:50.482Z,6.53
2023-03-03T10:43:46.041Z,6.75
2023-03-03T10:46:25.242Z,6.55
2023-03-03T10:49:20.068Z,6.72
2023-03-03T10:52:07.563Z,7.01
2023-03-03T10:54:52.408Z,7.01
2023-03-03T10:57:44.500Z,7.06
2023-03-03T11:00:32.356Z,7.34
2023-03-03T11:03:29.268Z,7.67
2023-03-03T11:06:04.674Z,6.98
2023-03-03T11:08:37.330Z,7.38
2023-03-03T11:11:22.016Z,7.53
2023-03-03T11:13:57.754Z,7.98
2023-03-03T11:16:41.532Z,8.17
2023-03-03T11:19:36.912Z,8.10
2023-03-03T11:22:18.380Z,8.16
2023-03-03T11:25:05.859Z,8.78
2023-03-03T11:27:39.264Z,8.96
2023-03-03T11:30:16.786Z,8.94
2023-03-03T11:33:05.199Z,8.86
2023-03-03T11:35:49.885Z,9.13
2023-03-03T11:38:28.655Z,8.63
2023-03-03T11:41:16.301Z,8.53
2023-03-03T11:43:49.479Z,9.09
2023-03-03T11:46:34.073Z,9.24
2023-03-03T11:49:25.283Z,8.74
2023-03-03T11:52:09.869Z,9.35
2023-03-03T11:54:52.029Z,9.41
2023-03-03T11:57:33.886Z,9.40
2023-03-03T12:00:21.800Z,9.42
2023-03-03T12:03:10.985Z,9.31
2023-03-03T12:05:49.238Z,9.82
2023-03-03T12:08:41.344Z,9.55
2023-03-03T12:11:35.549Z,9.48
2023-03-03T12:14:25.167Z,9.06
2023-03-03T12:17:03.854Z,9.26
2023-03-03T12:19:44.948Z,9.72
2023-03-03T12:22:29.756Z,9.70
2023-03-03T12:25:22.189Z,10.05
2023-03-03T12:28:05.235Z,10.20
2023-03-03T12:30:38.021Z,9.37
2023-03-03T12:33:40.451Z,9.35
2023-03-03T12:36:38.322Z,9.57
2023-03-03T12:42:17.540Z,10.03
2023-03-03T12:45:11.190Z,10.13
2023-03-03T12:48:03.853Z,9.90
2023-03-03T12:50:36.483Z,10.16
2023-03-03T12:56:02.336Z,10.58
2023-03-03T12:58:55.773Z,10.79
2023-03-03T13:02:02.997Z,11.00
2023-03-03T13:04:53.291Z,10.85
2023-03-03T13:07:45.925Z,10.70
2023-03-03T13:10:23.866Z,11.32
2023-03-03T13:13:27.059Z,11.56
2023-03-03T13:16:03.073Z,11.26
2023-03-03T13:21:42.959Z,10.78
2023-03-03T13:24:20.869Z,10.66
2023-03-03T13:26:53.816Z,10.60
2023-03-03T13:29:32.346Z,10.60
2023-03-03T13:32:13.853Z,11.09
2023-03-03T13:34:46.722Z,11.50
2023-03-03T13:37:25.485Z,11.50
2023-03-03T13:39:58.051Z,11.12
2023-03-03T13:42:42.947Z,11.36
2023-03-03T13:45:24.935Z,10.92
2023-03-03T13:47:58.139Z,11.85
2023-03-03T13:50:51.604Z,12.38
2023-03-03T13:53:30.059Z,12.43
2023-03-03T13:56:02.895Z,12.40
2023-03-03T13:58:52.584Z,11.78
2023-03-03T14:01:28.869Z,11.54
2023-03-03T14:04:25.562Z,11.63
2023-03-03T14:06:56.019Z,12.34
2023-03-03T14:12:41.324Z,12.03
2023-03-03T14:15:31.728Z,12.27
2023-03-03T14:18:16.883Z,12.70
2023-03-03T14:20:54.380Z,12.70
2023-03-03T14:23:30.517Z,12.97
2023-03-03T14:26:11.568Z,12.97
2023-03-03T14:28:45.165Z,12.84
2023-03-03T14:31:23.540Z,12.69
2023-03-03T14:34:05.625Z,12.42
2023-03-03T14:36:38.499Z,12.42
2023-03-03T14:39:29.040Z,11.76
2023-03-03T14:41:59.397Z,11.86
2023-03-03T14:44:34.020Z,12.46
2023-03-03T14:47:29.042Z,12.46
2023-03-03T14:50:03.721Z,12.08
2023-03-03T14:52:35.838Z,12.47
2023-03-03T14:55:10.501Z,11.85
2023-03-03T14:57:47.021Z,11.85
2023-03-03T15:00:22.824Z,11.63
2023-03-03T15:03:06.585Z,11.51
2023-03-03T15:05:36.561Z,11.49
2023-03-03T15:08:09.665Z,11.29
2023-03-03T15:10:46.733Z,11.70
2023-03-03T15:13:29.208Z,11.23
2023-03-03T15:16:05.235Z,11.39
2023-03-03T15:18:35.564Z,11.44
2023-03-03T15:21:20.240Z,11.28
2023-03-03T15:23:59.297Z,10.99
2023-03-03T15:26:50.089Z,10.88
2023-03-03T15:29:35.248Z,10.91
2023-03-03T15:32:24.512Z,10.91
2023-03-03T15:34:59.320Z,11.13
2023-03-03T15:37:39.039Z,11.13
2023-03-03T15:40:19.329Z,10.97
2023-03-03T15:42:58.257Z,10.58
2023-03-03T15:45:48.233Z,10.58
2023-03-03T15:48:45.089Z,10.84
2023-03-03T15:51:15.375Z,10.71
2023-03-03T15:53:56.247Z,10.89
2023-03-03T15:56:49.754Z,10.73
2023-03-03T15:59:47.918Z,10.55
2023-03-03T16:02:26.673Z,10.51
2023-03-03T16:05:17.440Z,10.34
2023-03-03T16:08:08.262Z,10.06
2023-03-03T16:11:06.595Z,10.31
2023-03-03T16:16:57.939Z,9.81
2023-03-03T16:19:47.116Z,9.92
2023-03-03T16:22:33.508Z,9.41
2023-03-03T16:25:09.083Z,9.35
2023-03-03T16:28:02.558Z,8.92
2023-03-03T16:30:59.021Z,8.92
2023-03-03T16:33:41.614Z,9.04
2023-03-03T16:36:19.775Z,9.04
2023-03-03T16:39:12.786Z,8.84
2023-03-03T16:41:45.657Z,8.81
2023-03-03T16:44:20.320Z,8.60
2023-03-03T16:46:53.369Z,8.69
2023-03-03T16:49:31.377Z,8.51
2023-03-03T16:52:16.119Z,8.48
2023-03-03T16:54:50.898Z,8.58
2023-03-03T16:57:35.480Z,8.57
2023-03-03T17:03:06.052Z,8.66
2023-03-03T17:05:44.788Z,8.53
2023-03-03T17:08:30.102Z,8.21
2023-03-03T17:11:28.392Z,8.56
2023-03-03T17:14:01.544Z,8.25
2023-03-03T17:16:52.677Z,8.24
2023-03-03T17:19:41.643Z,8.37
2023-03-03T17:22:17.261Z,8.10
2023-03-03T17:25:08.342Z,7.74
2023-03-03T17:27:47.047Z,7.96
2023-03-03T17:30:37.814Z,8.02
2023-03-03T17:33:12.510Z,8.08
2023-03-03T17:35:59.920Z,7.97
2023-03-03T17:39:01.437Z,7.64
2023-03-03T17:41:37.123Z,7.59
2023-03-03T17:44:25.020Z,7.68
2023-03-03T17:47:02.982Z,7.86
2023-03-03T17:49:47.406Z,7.91
2023-03-03T17:52:34.741Z,7.69
2023-03-03T17:55:29.442Z,7.69
2023-03-03T17:58:08.899Z,7.43
2023-03-03T18:01:03.768Z,7.43
2023-03-03T18:03:39.439Z,7.71
2023-03-03T18:06:17.792Z,7.61
2023-03-03T18:09:14.451Z,7.31
2023-03-03T18:11:45.879Z,7.31
2023-03-03T18:14:21.491Z,7.36
2023-03-03T18:17:02.939Z,7.45
2023-03-03T18:20:01.378Z,7.21
2023-03-03T18:22:34.696Z,7.33
2023-03-03T18:25:24.307Z,7.33
2023-03-03T18:28:05.916Z,7.14
2023-03-03T18:30:55.246Z,7.22
2023-03-03T18:33:46.251Z,7.20
2023-03-03T18:36:31.958Z,7.01
2023-03-03T18:39:05.043Z,6.99
2023-03-03T18:41:37.539Z,6.94
2023-03-03T18:44:28.385Z,7.02
2023-03-03T18:46:58.928Z,7.02
2023-03-03T18:49:57.610Z,7.09
2023-03-03T18:52:30.634Z,7.09
2023-03-03T18:55:12.270Z,6.92
2023-03-03T18:57:47.116Z,7.17
2023-03-03T19:00:20.249Z,7.03
2023-03-03T19:02:55.945Z,7.20
2023-03-03T19:05:40.252Z,7.04
2023-03-03T19:08:19.345Z,7.15
2023-03-03T19:11:02.970Z,7.29
2023-03-03T19:13:38.226Z,7.10
2023-03-03T19:16:31.973Z,7.19
2023-03-03T19:19:04.627Z,7.41
2023-03-03T19:21:39.426Z,7.32
2023-03-03T19:24:28.527Z,7.24
2023-03-03T19:27:16.299Z,7.24
2023-03-03T19:29:49.257Z,7.24
2023-03-03T19:32:38.007Z,7.27
2023-03-03T19:35:37.817Z,7.27
2023-03-03T19:38:34.581Z,7.44
2023-03-03T19:41:25.013Z,7.30
2023-03-03T19:44:27.584Z,7.20
2023-03-03T19:47:06.400Z,7.27
2023-03-03T19:49:55.708Z,7.04
2023-03-03T19:52:43.435Z,7.04
2023-03-03T19:55:38.433Z,7.00
2023-03-03T19:58:30.984Z,7.04
2023-03-03T20:01:25.524Z,7.08
2023-03-03T20:04:25.193Z,7.00
2023-03-03T20:07:17.026Z,7.28
2023-03-03T20:09:58.839Z,7.11
2023-03-03T20:12:53.942Z,7.25
2023-03-03T20:15:46.767Z,7.19
2023-03-03T20:18:39.173Z,7.14
2023-03-03T20:21:20.922Z,6.95
2023-03-03T20:24:20.255Z,6.86
2023-03-03T20:27:16.720Z,6.79
2023-03-03T20:30:19.248Z,7.06
2023-03-03T20:32:57.914Z,6.98
2023-03-03T20:35:42.558Z,6.98
2023-03-03T20:38:33.418Z,7.18
2023-03-03T20:41:25.460Z,6.98
2023-03-03T20:44:12.255Z,7.06
2023-03-03T20:46:56.966Z,6.96
2023-03-03T20:49:41.691Z,7.14
2023-03-03T20:52:32.819Z,7.03
2023-03-03T20:55:14.304Z,7.12
2023-03-03T20:57:56.204Z,7.08
2023-03-03T21:00:31.245Z,7.31
2023-03-03T21:03:06.822Z,7.27
2023-03-03T21:05:38.228Z,7.28
2023-03-03T21:08:08.166Z,7.28
2023-03-03T21:10:42.211Z,7.15
2023-03-03T21:13:39.034Z,7.36
2023-03-03T21:16:17.068Z,7.27
2023-03-03T21:19:05.667Z,7.29
2023-03-03T21:21:37.993Z,7.34
2023-03-03T21:24:08.885Z,7.39
2023-03-03T21:26:58.898Z,7.39
2023-03-03T21:29:34.553Z,7.38
2023-03-03T21:32:11.628Z,7.53
2023-03-03T21:34:43.484Z,7.27
2023-03-03T21:37:15.931Z,7.30
2023-03-03T21:39:46.154Z,7.53
2023-03-03T21:42:20.485Z,7.59
2023-03-03T21:44:51.757Z,7.23
2023-03-03T21:47:24.326Z,7.42
2023-03-03T21:49:54.130Z,7.36
2023-03-03T21:52:23.947Z,7.48
2023-03-03T21:54:53.837Z,7.55
2023-03-03T21:57:25.141Z,7.38
2023-03-03T21:59:55.247Z,7.56
2023-03-03T22:02:25.005Z,7.59
2023-03-03T22:04:54.599Z,7.57
2023-03-03T22:07:24.681Z,7.47
2023-03-03T22:09:54.582Z,7.61
2023-03-03T22:12:24.344Z,7.53
2023-03-03T22:14:54.105Z,7.34
2023-03-03T22:17:25.474Z,6.95
2023-03-03T22:19:55.816Z,7.07
2023-03-03T22:22:25.575Z,7.02
2023-03-03T22:24:55.410Z,7.16
2023-03-03T22:27:25.158Z,7.11
2023-03-03T22:29:54.986Z,7.33
2023-03-03T22:32:24.815Z,7.26
2023-03-03T22:34:54.676Z,7.27
2023-03-03T22:37:24.431Z,7.17
2023-03-03T22:39:54.516Z,7.21
2023-03-03T22:42:25.047Z,7.13
2023-03-03T22:44:54.809Z,7.06
2023-03-03T22:47:24.651Z,7.19
2023-03-03T22:49:54.405Z,7.23
2023-03-03T22:52:24.213Z,7.34
2023-03-03T22:54:54.368Z,7.31
2023-03-03T22:57:24.486Z,7.31
2023-03-03T22:59:54.532Z,7.31
2023-03-03T23:02:24.328Z,7.42
2023-03-03T23:04:56.115Z,7.56
2023-03-03T23:07:26.455Z,7.36
2023-03-03T23:09:57.225Z,7.26
2023-03-03T23:12:27.243Z,7.45
2023-03-03T23:14:57.305Z,7.39
2023-03-03T23:17:27.448Z,7.30
2023-03-03T23:19:57.190Z,6.98
2023-03-03T23:22:27.209Z,7.14
2023-03-03T23:24:57.013Z,7.16
2023-03-03T23:27:26.636Z,7.19
2023-03-03T23:29:56.522Z,7.15
2023-03-03T23:32:26.576Z,7.03
2023-03-03T23:34:56.386Z,7.13
2023-03-03T23:37:26.214Z,7.14
2023-03-03T23:39:55.757Z,6.97
2023-03-03T23:42:29.830Z,6.97
2023-03-03T23:44:59.893Z,7.10
2023-03-03T23:47:29.708Z,6.97
2023-03-03T23:49:59.838Z,7.08
2023-03-03T23:52:29.740Z,6.99
2023-03-03T23:54:59.603Z,6.78
2023-03-03T23:57:29.560Z,6.85
2023-03-03T23:59:59.364Z,6.85
